Resolute — WTW2234 — position and weather

sailwx.info

Track history (hours):
 
Tides and Currents Weather Stations Pressure Air Temp Water Temp Dewpoint Dewpoint Depression Visibility Wind Speed Wind Dir Waves Ship Positions

Resolute

Owner: Providence Steamboat Co., PROVIDENCE, RI. More information available from US FCC via Universal Licensing System and Coast Guard Vessel Documentation Center.

Last reported at 2017-Oct-19 13:10 UTC. Time now 2017-Oct-20 03:42 UTC.
Position N 41°42' W 071°11'.

Length 30 m; draft 4 m.

Type: Tug. MMSI: 367091630.

Date/timePositionNaut miles runAvg speedWind from/ knotsBaromVisibWave heightAir tempDewpointWater temp
2017-Oct-19 13:10N 41°42' W 071°11'2 7.3
2017-Oct-19 12:54N 41°40' W 071°13'610.0
2017-Oct-19 12:19N 41°36' W 071°18'4 8.9
2017-Oct-19 11:54N 41°35' W 071°23'1 1.1
2017-Oct-19 10:52N 41°36' W 071°24'2 5.2
2017-Oct-19 10:26N 41°35' W 071°22'3 5.9
2017-Oct-19 10:00N 41°35' W 071°19'  
2017-Oct-13 12:13N 41°42' W 071°11'0 0.0
2017-Oct-13 11:59N 41°42' W 071°11'0 0.0
2017-Oct-13 11:30N 41°42' W 071°11'0 0.0
2017-Oct-13 11:00N 41°42' W 071°11'0 0.0
2017-Oct-13 10:30N 41°42' W 071°11'0 0.0
2017-Oct-13 10:00N 41°42' W 071°11'0 0.0
2017-Oct-13 09:30N 41°42' W 071°11'0 0.0
2017-Oct-13 09:00N 41°42' W 071°11'0 0.0
2017-Oct-13 08:30N 41°42' W 071°11'0 0.0
2017-Oct-13 05:04N 41°42' W 071°11'0 0.1
2017-Oct-13 04:59N 41°42' W 071°11'0 0.0
2017-Oct-13 04:30N 41°42' W 071°11'0 0.0
2017-Oct-13 04:00N 41°42' W 071°11'0 0.0
2017-Oct-13 03:30N 41°42' W 071°11'0 0.0
2017-Oct-13 02:59N 41°42' W 071°11'0 0.0
2017-Oct-13 02:30N 41°42' W 071°11'0 0.0
2017-Oct-13 02:01N 41°42' W 071°11'0 0.0
2017-Oct-13 01:13N 41°42' W 071°11'0 0.0
2017-Oct-13 00:56N 41°42' W 071°11'0 0.0
2017-Oct-13 00:25N 41°42' W 071°11'0 0.0
2017-Oct-12 23:59N 41°42' W 071°11'0 0.0
2017-Oct-12 23:30N 41°42' W 071°11'  
Track history (hours):
 
Tides and Currents Weather Stations Pressure Air Temp Water Temp Dewpoint Dewpoint Depression Visibility Wind Speed Wind Dir Waves Ship Positions

Resolute

Owner: Providence Steamboat Co., PROVIDENCE, RI. More information available from US FCC via Universal Licensing System and Coast Guard Vessel Documentation Center.

Last reported at 2017-Oct-19 13:10 UTC. Time now 2017-Oct-20 03:42 UTC.
Position N 41°42' W 071°11'.

Length 30 m; draft 4 m.

Type: Tug. MMSI: 367091630.

Date/timePositionNaut miles runAvg speedWind from/ knotsBaromVisibWave heightAir tempDewpointWater temp
2017-Oct-19 13:10N 41°42' W 071°11'2 7.3
2017-Oct-19 12:54N 41°40' W 071°13'610.0
2017-Oct-19 12:19N 41°36' W 071°18'4 8.9
2017-Oct-19 11:54N 41°35' W 071°23'1 1.1
2017-Oct-19 10:52N 41°36' W 071°24'2 5.2
2017-Oct-19 10:26N 41°35' W 071°22'3 5.9
2017-Oct-19 10:00N 41°35' W 071°19'  
2017-Oct-13 12:13N 41°42' W 071°11'0 0.0
2017-Oct-13 11:59N 41°42' W 071°11'0 0.0
2017-Oct-13 11:30N 41°42' W 071°11'0 0.0
2017-Oct-13 11:00N 41°42' W 071°11'0 0.0
2017-Oct-13 10:30N 41°42' W 071°11'0 0.0
2017-Oct-13 10:00N 41°42' W 071°11'0 0.0
2017-Oct-13 09:30N 41°42' W 071°11'0 0.0
2017-Oct-13 09:00N 41°42' W 071°11'0 0.0
2017-Oct-13 08:30N 41°42' W 071°11'0 0.0
2017-Oct-13 05:04N 41°42' W 071°11'0 0.1
2017-Oct-13 04:59N 41°42' W 071°11'0 0.0
2017-Oct-13 04:30N 41°42' W 071°11'0 0.0
2017-Oct-13 04:00N 41°42' W 071°11'0 0.0
2017-Oct-13 03:30N 41°42' W 071°11'0 0.0
2017-Oct-13 02:59N 41°42' W 071°11'0 0.0
2017-Oct-13 02:30N 41°42' W 071°11'0 0.0
2017-Oct-13 02:01N 41°42' W 071°11'0 0.0
2017-Oct-13 01:13N 41°42' W 071°11'0 0.0
2017-Oct-13 00:56N 41°42' W 071°11'0 0.0
2017-Oct-13 00:25N 41°42' W 071°11'0 0.0
2017-Oct-12 23:59N 41°42' W 071°11'0 0.0
2017-Oct-12 23:30N 41°42' W 071°11'  

Dump ship's entire track history